sensor_id;sensor_type;location;lat;lon;timestamp;P1;durP1;ratioP1;P2;durP2;ratioP2
14726;SDS011;7454;51.256;8.176;2022-07-23T00:00:00;24.50;;;14.57;;
14726;SDS011;7454;51.256;8.176;2022-07-23T00:02:26;22.13;;;13.60;;
14726;SDS011;7454;51.256;8.176;2022-07-23T00:04:52;24.15;;;13.52;;
14726;SDS011;7454;51.256;8.176;2022-07-23T00:07:17;21.15;;;13.52;;
14726;SDS011;7454;51.256;8.176;2022-07-23T00:09:43;24.08;;;13.93;;
14726;SDS011;7454;51.256;8.176;2022-07-23T00:12:09;21.95;;;13.07;;
14726;SDS011;7454;51.256;8.176;2022-07-23T00:14:35;24.00;;;14.25;;
14726;SDS011;7454;51.256;8.176;2022-07-23T00:17:00;22.10;;;13.95;;
14726;SDS011;7454;51.256;8.176;2022-07-23T00:19:26;27.17;;;15.77;;
14726;SDS011;7454;51.256;8.176;2022-07-23T00:21:52;22.90;;;14.52;;
14726;SDS011;7454;51.256;8.176;2022-07-23T00:24:18;23.52;;;14.07;;
14726;SDS011;7454;51.256;8.176;2022-07-23T00:26:43;26.55;;;13.85;;
14726;SDS011;7454;51.256;8.176;2022-07-23T00:29:09;26.27;;;14.60;;
14726;SDS011;7454;51.256;8.176;2022-07-23T00:31:35;24.63;;;13.40;;
14726;SDS011;7454;51.256;8.176;2022-07-23T00:34:01;23.85;;;14.68;;
14726;SDS011;7454;51.256;8.176;2022-07-23T00:36:27;22.73;;;13.05;;
14726;SDS011;7454;51.256;8.176;2022-07-23T00:38:53;23.23;;;13.52;;
14726;SDS011;7454;51.256;8.176;2022-07-23T00:41:19;24.67;;;15.32;;
14726;SDS011;7454;51.256;8.176;2022-07-23T00:43:46;21.20;;;14.25;;
14726;SDS011;7454;51.256;8.176;2022-07-23T00:46:12;22.65;;;15.50;;
14726;SDS011;7454;51.256;8.176;2022-07-23T00:48:37;27.02;;;15.30;;
14726;SDS011;7454;51.256;8.176;2022-07-23T00:51:03;22.67;;;14.45;;
14726;SDS011;7454;51.256;8.176;2022-07-23T00:53:29;30.00;;;15.23;;
14726;SDS011;7454;51.256;8.176;2022-07-23T00:55:57;29.20;;;16.10;;
14726;SDS011;7454;51.256;8.176;2022-07-23T00:58:24;31.17;;;17.83;;
14726;SDS011;7454;51.256;8.176;2022-07-23T01:00:50;32.30;;;18.63;;
14726;SDS011;7454;51.256;8.176;2022-07-23T01:03:16;39.03;;;18.08;;
14726;SDS011;7454;51.256;8.176;2022-07-23T01:05:42;33.28;;;19.33;;
14726;SDS011;7454;51.256;8.176;2022-07-23T01:08:08;37.15;;;20.38;;
14726;SDS011;7454;51.256;8.176;2022-07-23T01:10:33;34.17;;;20.60;;
14726;SDS011;7454;51.256;8.176;2022-07-23T01:13:03;36.65;;;21.45;;
14726;SDS011;7454;51.256;8.176;2022-07-23T01:15:33;37.85;;;22.02;;
14726;SDS011;7454;51.256;8.176;2022-07-23T01:18:02;38.97;;;20.80;;
14726;SDS011;7454;51.256;8.176;2022-07-23T01:20:30;39.58;;;21.15;;
14726;SDS011;7454;51.256;8.176;2022-07-23T01:23:00;39.95;;;21.73;;
14726;SDS011;7454;51.256;8.176;2022-07-23T01:25:26;41.97;;;21.02;;
14726;SDS011;7454;51.256;8.176;2022-07-23T01:27:58;34.22;;;21.65;;
14726;SDS011;7454;51.256;8.176;2022-07-23T01:30:24;36.88;;;20.70;;
14726;SDS011;7454;51.256;8.176;2022-07-23T01:32:54;36.25;;;20.60;;
14726;SDS011;7454;51.256;8.176;2022-07-23T01:35:20;38.72;;;22.17;;
14726;SDS011;7454;51.256;8.176;2022-07-23T01:37:47;35.47;;;20.58;;
14726;SDS011;7454;51.256;8.176;2022-07-23T01:40:14;39.60;;;20.92;;
14726;SDS011;7454;51.256;8.176;2022-07-23T01:42:40;43.22;;;23.40;;
14726;SDS011;7454;51.256;8.176;2022-07-23T01:45:07;39.40;;;21.13;;
14726;SDS011;7454;51.256;8.176;2022-07-23T01:47:35;36.67;;;21.05;;
14726;SDS011;7454;51.256;8.176;2022-07-23T01:50:01;36.80;;;20.35;;
14726;SDS011;7454;51.256;8.176;2022-07-23T01:52:50;37.38;;;21.55;;
14726;SDS011;7454;51.256;8.176;2022-07-23T01:55:15;36.20;;;20.45;;
14726;SDS011;7454;51.256;8.176;2022-07-23T01:57:42;35.03;;;20.90;;
14726;SDS011;7454;51.256;8.176;2022-07-23T02:00:10;38.20;;;21.85;;
14726;SDS011;7454;51.256;8.176;2022-07-23T02:02:43;35.97;;;21.30;;
14726;SDS011;7454;51.256;8.176;2022-07-23T02:05:09;36.63;;;20.98;;
14726;SDS011;7454;51.256;8.176;2022-07-23T02:07:35;43.00;;;21.15;;
14726;SDS011;7454;51.256;8.176;2022-07-23T02:10:02;37.63;;;20.85;;
14726;SDS011;7454;51.256;8.176;2022-07-23T02:12:28;36.80;;;21.77;;
14726;SDS011;7454;51.256;8.176;2022-07-23T02:14:53;43.05;;;22.00;;
14726;SDS011;7454;51.256;8.176;2022-07-23T02:17:19;37.10;;;20.98;;
14726;SDS011;7454;51.256;8.176;2022-07-23T02:19:45;41.78;;;22.15;;
14726;SDS011;7454;51.256;8.176;2022-07-23T02:22:11;33.90;;;20.60;;
14726;SDS011;7454;51.256;8.176;2022-07-23T02:24:37;39.00;;;20.20;;
14726;SDS011;7454;51.256;8.176;2022-07-23T02:27:03;41.70;;;20.95;;
14726;SDS011;7454;51.256;8.176;2022-07-23T02:29:29;41.17;;;22.85;;
14726;SDS011;7454;51.256;8.176;2022-07-23T02:31:54;40.17;;;22.60;;
14726;SDS011;7454;51.256;8.176;2022-07-23T02:34:21;43.50;;;23.05;;
14726;SDS011;7454;51.256;8.176;2022-07-23T02:36:47;41.13;;;23.20;;
14726;SDS011;7454;51.256;8.176;2022-07-23T02:39:13;43.03;;;23.48;;
14726;SDS011;7454;51.256;8.176;2022-07-23T02:41:39;41.65;;;23.42;;
14726;SDS011;7454;51.256;8.176;2022-07-23T02:44:06;38.03;;;22.63;;
14726;SDS011;7454;51.256;8.176;2022-07-23T02:46:32;51.17;;;25.23;;
14726;SDS011;7454;51.256;8.176;2022-07-23T02:48:58;39.78;;;23.00;;
14726;SDS011;7454;51.256;8.176;2022-07-23T02:51:24;44.45;;;24.00;;
14726;SDS011;7454;51.256;8.176;2022-07-23T02:53:55;42.45;;;22.77;;
14726;SDS011;7454;51.256;8.176;2022-07-23T02:56:21;46.72;;;25.60;;
14726;SDS011;7454;51.256;8.176;2022-07-23T02:58:46;43.50;;;24.45;;
14726;SDS011;7454;51.256;8.176;2022-07-23T03:01:13;42.20;;;23.73;;
14726;SDS011;7454;51.256;8.176;2022-07-23T03:03:38;42.40;;;22.88;;
14726;SDS011;7454;51.256;8.176;2022-07-23T03:06:04;37.85;;;22.30;;
14726;SDS011;7454;51.256;8.176;2022-07-23T03:08:30;47.00;;;24.73;;
14726;SDS011;7454;51.256;8.176;2022-07-23T03:10:56;40.72;;;21.08;;
14726;SDS011;7454;51.256;8.176;2022-07-23T03:13:22;43.83;;;24.38;;
14726;SDS011;7454;51.256;8.176;2022-07-23T03:15:48;48.97;;;25.58;;
14726;SDS011;7454;51.256;8.176;2022-07-23T03:18:13;51.60;;;25.00;;
14726;SDS011;7454;51.256;8.176;2022-07-23T03:20:39;45.15;;;24.85;;
14726;SDS011;7454;51.256;8.176;2022-07-23T03:23:05;41.28;;;24.38;;
14726;SDS011;7454;51.256;8.176;2022-07-23T03:25:31;45.50;;;24.40;;
14726;SDS011;7454;51.256;8.176;2022-07-23T03:27:57;50.03;;;24.42;;
14726;SDS011;7454;51.256;8.176;2022-07-23T03:30:25;41.45;;;23.75;;
14726;SDS011;7454;51.256;8.176;2022-07-23T03:32:50;47.55;;;24.25;;
14726;SDS011;7454;51.256;8.176;2022-07-23T03:35:16;49.80;;;24.30;;
14726;SDS011;7454;51.256;8.176;2022-07-23T03:37:49;47.17;;;25.33;;
14726;SDS011;7454;51.256;8.176;2022-07-23T03:40:15;50.30;;;25.98;;
14726;SDS011;7454;51.256;8.176;2022-07-23T03:42:41;47.50;;;26.33;;
14726;SDS011;7454;51.256;8.176;2022-07-23T03:45:07;45.33;;;24.40;;
14726;SDS011;7454;51.256;8.176;2022-07-23T03:47:34;46.13;;;24.98;;
14726;SDS011;7454;51.256;8.176;2022-07-23T03:50:00;45.40;;;24.48;;
14726;SDS011;7454;51.256;8.176;2022-07-23T03:52:25;40.28;;;24.52;;
14726;SDS011;7454;51.256;8.176;2022-07-23T03:54:51;44.03;;;25.25;;
14726;SDS011;7454;51.256;8.176;2022-07-23T03:57:17;44.28;;;24.50;;
14726;SDS011;7454;51.256;8.176;2022-07-23T03:59:43;45.90;;;24.08;;
14726;SDS011;7454;51.256;8.176;2022-07-23T04:02:08;44.60;;;24.27;;
14726;SDS011;7454;51.256;8.176;2022-07-23T04:04:34;41.17;;;23.52;;
14726;SDS011;7454;51.256;8.176;2022-07-23T04:07:00;46.90;;;23.92;;
14726;SDS011;7454;51.256;8.176;2022-07-23T04:09:26;48.50;;;24.80;;
14726;SDS011;7454;51.256;8.176;2022-07-23T04:11:53;42.00;;;23.27;;
14726;SDS011;7454;51.256;8.176;2022-07-23T04:14:19;50.20;;;24.85;;
14726;SDS011;7454;51.256;8.176;2022-07-23T04:16:45;53.10;;;26.27;;
14726;SDS011;7454;51.256;8.176;2022-07-23T04:19:11;40.92;;;23.85;;
14726;SDS011;7454;51.256;8.176;2022-07-23T04:21:50;43.25;;;22.38;;
14726;SDS011;7454;51.256;8.176;2022-07-23T04:24:16;45.65;;;25.58;;
14726;SDS011;7454;51.256;8.176;2022-07-23T04:26:43;37.03;;;23.17;;
14726;SDS011;7454;51.256;8.176;2022-07-23T04:29:09;39.97;;;21.35;;
14726;SDS011;7454;51.256;8.176;2022-07-23T04:31:35;40.00;;;22.02;;
14726;SDS011;7454;51.256;8.176;2022-07-23T04:34:01;37.60;;;21.35;;
14726;SDS011;7454;51.256;8.176;2022-07-23T04:36:29;34.80;;;20.67;;
14726;SDS011;7454;51.256;8.176;2022-07-23T04:38:55;33.33;;;19.75;;
14726;SDS011;7454;51.256;8.176;2022-07-23T04:41:21;30.80;;;19.90;;
14726;SDS011;7454;51.256;8.176;2022-07-23T04:43:47;36.67;;;21.25;;
14726;SDS011;7454;51.256;8.176;2022-07-23T04:46:13;31.63;;;21.40;;
14726;SDS011;7454;51.256;8.176;2022-07-23T04:48:45;41.03;;;22.45;;
14726;SDS011;7454;51.256;8.176;2022-07-23T04:51:11;35.88;;;20.70;;
14726;SDS011;7454;51.256;8.176;2022-07-23T04:53:37;37.80;;;22.27;;
14726;SDS011;7454;51.256;8.176;2022-07-23T04:56:04;34.30;;;21.70;;
14726;SDS011;7454;51.256;8.176;2022-07-23T04:58:31;37.42;;;21.75;;
14726;SDS011;7454;51.256;8.176;2022-07-23T05:00:57;37.78;;;22.48;;
14726;SDS011;7454;51.256;8.176;2022-07-23T05:03:23;42.85;;;22.40;;
14726;SDS011;7454;51.256;8.176;2022-07-23T05:05:49;36.70;;;22.05;;
14726;SDS011;7454;51.256;8.176;2022-07-23T05:08:17;37.33;;;23.50;;
14726;SDS011;7454;51.256;8.176;2022-07-23T05:10:48;43.30;;;23.00;;
14726;SDS011;7454;51.256;8.176;2022-07-23T05:13:15;39.15;;;21.50;;
14726;SDS011;7454;51.256;8.176;2022-07-23T05:15:41;36.00;;;21.63;;
14726;SDS011;7454;51.256;8.176;2022-07-23T05:18:08;38.38;;;21.65;;
14726;SDS011;7454;51.256;8.176;2022-07-23T05:20:34;32.88;;;20.25;;
14726;SDS011;7454;51.256;8.176;2022-07-23T05:23:00;44.28;;;20.58;;
14726;SDS011;7454;51.256;8.176;2022-07-23T05:25:27;52.05;;;20.45;;
14726;SDS011;7454;51.256;8.176;2022-07-23T05:27:53;58.97;;;21.05;;
14726;SDS011;7454;51.256;8.176;2022-07-23T05:30:19;62.88;;;22.52;;
14726;SDS011;7454;51.256;8.176;2022-07-23T05:32:47;46.03;;;22.08;;
14726;SDS011;7454;51.256;8.176;2022-07-23T05:35:16;44.72;;;22.60;;
14726;SDS011;7454;51.256;8.176;2022-07-23T05:37:50;32.90;;;21.15;;
14726;SDS011;7454;51.256;8.176;2022-07-23T05:40:18;36.22;;;22.30;;
14726;SDS011;7454;51.256;8.176;2022-07-23T05:42:44;33.80;;;21.30;;
14726;SDS011;7454;51.256;8.176;2022-07-23T05:45:10;38.00;;;22.17;;
14726;SDS011;7454;51.256;8.176;2022-07-23T05:47:40;35.30;;;23.02;;
14726;SDS011;7454;51.256;8.176;2022-07-23T05:50:22;37.40;;;22.35;;
14726;SDS011;7454;51.256;8.176;2022-07-23T05:52:54;35.55;;;22.60;;
14726;SDS011;7454;51.256;8.176;2022-07-23T05:55:25;39.08;;;22.98;;
14726;SDS011;7454;51.256;8.176;2022-07-23T05:57:55;34.13;;;23.05;;
14726;SDS011;7454;51.256;8.176;2022-07-23T06:00:21;36.83;;;21.83;;
14726;SDS011;7454;51.256;8.176;2022-07-23T06:02:47;34.20;;;22.02;;
14726;SDS011;7454;51.256;8.176;2022-07-23T06:05:15;39.22;;;22.90;;
14726;SDS011;7454;51.256;8.176;2022-07-23T06:07:42;39.10;;;22.60;;
14726;SDS011;7454;51.256;8.176;2022-07-23T06:10:08;34.72;;;22.13;;
14726;SDS011;7454;51.256;8.176;2022-07-23T06:12:35;35.35;;;21.27;;
14726;SDS011;7454;51.256;8.176;2022-07-23T06:15:01;35.20;;;20.20;;
14726;SDS011;7454;51.256;8.176;2022-07-23T06:17:28;32.50;;;21.80;;
14726;SDS011;7454;51.256;8.176;2022-07-23T06:19:54;40.28;;;20.63;;
14726;SDS011;7454;51.256;8.176;2022-07-23T06:22:20;30.90;;;19.65;;
14726;SDS011;7454;51.256;8.176;2022-07-23T06:24:47;28.25;;;16.83;;
14726;SDS011;7454;51.256;8.176;2022-07-23T06:27:13;27.42;;;15.77;;
14726;SDS011;7454;51.256;8.176;2022-07-23T06:29:39;25.70;;;15.90;;
14726;SDS011;7454;51.256;8.176;2022-07-23T06:32:06;27.05;;;15.65;;
14726;SDS011;7454;51.256;8.176;2022-07-23T06:34:33;23.58;;;14.43;;
14726;SDS011;7454;51.256;8.176;2022-07-23T06:36:59;23.95;;;13.90;;
14726;SDS011;7454;51.256;8.176;2022-07-23T06:39:25;25.10;;;14.40;;
14726;SDS011;7454;51.256;8.176;2022-07-23T06:41:51;23.38;;;13.90;;
14726;SDS011;7454;51.256;8.176;2022-07-23T06:44:17;24.50;;;14.07;;
14726;SDS011;7454;51.256;8.176;2022-07-23T06:46:46;20.67;;;12.40;;
14726;SDS011;7454;51.256;8.176;2022-07-23T06:49:12;20.60;;;12.82;;
14726;SDS011;7454;51.256;8.176;2022-07-23T06:51:37;22.27;;;12.88;;
14726;SDS011;7454;51.256;8.176;2022-07-23T06:54:04;22.67;;;12.40;;
14726;SDS011;7454;51.256;8.176;2022-07-23T06:56:30;20.77;;;12.73;;
14726;SDS011;7454;51.256;8.176;2022-07-23T06:58:56;24.15;;;13.65;;
14726;SDS011;7454;51.256;8.176;2022-07-23T07:01:21;17.45;;;10.20;;
14726;SDS011;7454;51.256;8.176;2022-07-23T07:03:47;19.63;;;11.15;;
14726;SDS011;7454;51.256;8.176;2022-07-23T07:06:14;14.85;;;10.57;;
14726;SDS011;7454;51.256;8.176;2022-07-23T07:08:40;17.17;;;10.18;;
14726;SDS011;7454;51.256;8.176;2022-07-23T07:11:09;19.35;;;9.40;;
14726;SDS011;7454;51.256;8.176;2022-07-23T07:13:36;16.85;;;8.32;;
14726;SDS011;7454;51.256;8.176;2022-07-23T07:16:03;15.27;;;7.45;;
14726;SDS011;7454;51.256;8.176;2022-07-23T07:18:29;15.82;;;6.85;;
14726;SDS011;7454;51.256;8.176;2022-07-23T07:20:56;13.52;;;7.00;;
14726;SDS011;7454;51.256;8.176;2022-07-23T07:23:23;12.45;;;5.82;;
14726;SDS011;7454;51.256;8.176;2022-07-23T07:25:48;11.52;;;6.00;;
14726;SDS011;7454;51.256;8.176;2022-07-23T07:28:14;15.43;;;6.60;;
14726;SDS011;7454;51.256;8.176;2022-07-23T07:30:40;13.73;;;6.80;;
14726;SDS011;7454;51.256;8.176;2022-07-23T07:33:06;11.43;;;6.53;;
14726;SDS011;7454;51.256;8.176;2022-07-23T07:35:32;16.35;;;7.20;;
14726;SDS011;7454;51.256;8.176;2022-07-23T07:37:58;14.63;;;6.90;;
14726;SDS011;7454;51.256;8.176;2022-07-23T07:40:25;14.38;;;6.40;;
14726;SDS011;7454;51.256;8.176;2022-07-23T07:42:52;15.05;;;6.88;;
14726;SDS011;7454;51.256;8.176;2022-07-23T07:45:19;17.05;;;6.97;;
14726;SDS011;7454;51.256;8.176;2022-07-23T07:47:46;12.80;;;6.55;;
14726;SDS011;7454;51.256;8.176;2022-07-23T07:50:13;14.93;;;7.15;;
14726;SDS011;7454;51.256;8.176;2022-07-23T07:52:39;15.57;;;8.02;;
14726;SDS011;7454;51.256;8.176;2022-07-23T07:55:05;14.48;;;6.57;;
14726;SDS011;7454;51.256;8.176;2022-07-23T07:57:33;15.23;;;7.32;;
14726;SDS011;7454;51.256;8.176;2022-07-23T07:59:59;14.40;;;6.80;;
14726;SDS011;7454;51.256;8.176;2022-07-23T08:02:26;12.68;;;7.15;;
14726;SDS011;7454;51.256;8.176;2022-07-23T08:04:52;15.82;;;6.93;;
14726;SDS011;7454;51.256;8.176;2022-07-23T08:07:18;11.48;;;6.30;;
14726;SDS011;7454;51.256;8.176;2022-07-23T08:09:44;11.43;;;6.30;;
14726;SDS011;7454;51.256;8.176;2022-07-23T08:12:10;16.10;;;6.65;;
14726;SDS011;7454;51.256;8.176;2022-07-23T08:14:39;14.38;;;7.65;;
14726;SDS011;7454;51.256;8.176;2022-07-23T08:17:05;12.23;;;6.57;;
14726;SDS011;7454;51.256;8.176;2022-07-23T08:19:30;15.07;;;6.95;;
14726;SDS011;7454;51.256;8.176;2022-07-23T08:21:56;17.70;;;8.38;;
14726;SDS011;7454;51.256;8.176;2022-07-23T08:24:22;14.20;;;7.10;;
14726;SDS011;7454;51.256;8.176;2022-07-23T08:26:48;15.93;;;6.78;;
14726;SDS011;7454;51.256;8.176;2022-07-23T08:29:13;14.00;;;7.30;;
14726;SDS011;7454;51.256;8.176;2022-07-23T08:31:39;15.88;;;8.00;;
14726;SDS011;7454;51.256;8.176;2022-07-23T08:34:05;13.05;;;8.52;;
14726;SDS011;7454;51.256;8.176;2022-07-23T08:36:31;14.13;;;7.65;;
14726;SDS011;7454;51.256;8.176;2022-07-23T08:39:00;15.65;;;7.75;;
14726;SDS011;7454;51.256;8.176;2022-07-23T08:41:28;17.08;;;8.52;;
14726;SDS011;7454;51.256;8.176;2022-07-23T08:43:54;17.00;;;8.27;;
14726;SDS011;7454;51.256;8.176;2022-07-23T08:46:21;15.07;;;8.45;;
14726;SDS011;7454;51.256;8.176;2022-07-23T08:48:49;16.13;;;8.63;;
14726;SDS011;7454;51.256;8.176;2022-07-23T08:51:15;13.52;;;7.35;;
14726;SDS011;7454;51.256;8.176;2022-07-23T08:53:42;15.00;;;6.90;;
14726;SDS011;7454;51.256;8.176;2022-07-23T08:56:09;12.02;;;7.50;;
14726;SDS011;7454;51.256;8.176;2022-07-23T08:58:35;12.73;;;7.63;;
14726;SDS011;7454;51.256;8.176;2022-07-23T09:01:01;15.45;;;8.55;;
14726;SDS011;7454;51.256;8.176;2022-07-23T09:03:28;15.30;;;7.90;;
14726;SDS011;7454;51.256;8.176;2022-07-23T09:05:56;13.95;;;7.47;;
14726;SDS011;7454;51.256;8.176;2022-07-23T09:08:24;19.58;;;6.80;;
14726;SDS011;7454;51.256;8.176;2022-07-23T09:11:06;13.50;;;6.40;;
14726;SDS011;7454;51.256;8.176;2022-07-23T09:13:39;13.23;;;6.93;;
14726;SDS011;7454;51.256;8.176;2022-07-23T09:16:17;12.05;;;7.30;;
14726;SDS011;7454;51.256;8.176;2022-07-23T09:18:55;18.77;;;7.32;;
14726;SDS011;7454;51.256;8.176;2022-07-23T09:21:28;17.42;;;8.55;;
14726;SDS011;7454;51.256;8.176;2022-07-23T09:31:53;18.98;;;7.60;;
14726;SDS011;7454;51.256;8.176;2022-07-23T09:34:33;13.70;;;6.47;;
14726;SDS011;7454;51.256;8.176;2022-07-23T09:39:44;17.52;;;7.25;;
14726;SDS011;7454;51.256;8.176;2022-07-23T09:42:12;15.15;;;7.90;;
14726;SDS011;7454;51.256;8.176;2022-07-23T09:44:48;14.05;;;7.63;;
14726;SDS011;7454;51.256;8.176;2022-07-23T09:47:21;23.40;;;7.65;;
14726;SDS011;7454;51.256;8.176;2022-07-23T09:52:46;12.85;;;6.88;;
14726;SDS011;7454;51.256;8.176;2022-07-23T09:55:15;12.25;;;6.63;;
14726;SDS011;7454;51.256;8.176;2022-07-23T09:57:42;14.13;;;6.95;;
14726;SDS011;7454;51.256;8.176;2022-07-23T10:00:21;15.70;;;6.47;;
14726;SDS011;7454;51.256;8.176;2022-07-23T10:02:48;14.77;;;6.53;;
14726;SDS011;7454;51.256;8.176;2022-07-23T10:05:27;12.52;;;6.47;;
14726;SDS011;7454;51.256;8.176;2022-07-23T10:07:55;61.90;;;8.27;;
14726;SDS011;7454;51.256;8.176;2022-07-23T10:10:35;12.32;;;6.15;;
14726;SDS011;7454;51.256;8.176;2022-07-23T10:13:23;12.13;;;5.97;;
14726;SDS011;7454;51.256;8.176;2022-07-23T10:15:50;13.77;;;6.13;;
14726;SDS011;7454;51.256;8.176;2022-07-23T10:18:16;12.48;;;7.15;;
14726;SDS011;7454;51.256;8.176;2022-07-23T10:20:42;13.95;;;7.15;;
14726;SDS011;7454;51.256;8.176;2022-07-23T10:23:44;19.52;;;6.53;;
14726;SDS011;7454;51.256;8.176;2022-07-23T10:26:23;16.70;;;5.93;;
14726;SDS011;7454;51.256;8.176;2022-07-23T10:32:00;14.93;;;7.38;;
14726;SDS011;7454;51.256;8.176;2022-07-23T10:40:18;10.60;;;5.80;;
14726;SDS011;7454;51.256;8.176;2022-07-23T10:42:44;10.05;;;5.53;;
14726;SDS011;7454;51.256;8.176;2022-07-23T10:45:29;13.23;;;5.95;;
14726;SDS011;7454;51.256;8.176;2022-07-23T10:47:55;9.93;;;4.68;;
14726;SDS011;7454;51.256;8.176;2022-07-23T10:59:19;10.60;;;4.65;;
14726;SDS011;7454;51.256;8.176;2022-07-23T11:01:46;9.93;;;4.35;;
14726;SDS011;7454;51.256;8.176;2022-07-23T11:04:12;11.23;;;4.07;;
14726;SDS011;7454;51.256;8.176;2022-07-23T11:07:20;13.27;;;6.68;;
14726;SDS011;7454;51.256;8.176;2022-07-23T11:09:27;11.57;;;5.55;;
14726;SDS011;7454;51.256;8.176;2022-07-23T11:17:37;11.55;;;4.63;;
14726;SDS011;7454;51.256;8.176;2022-07-23T11:20:13;13.10;;;4.85;;
14726;SDS011;7454;51.256;8.176;2022-07-23T11:25:14;9.23;;;4.40;;
14726;SDS011;7454;51.256;8.176;2022-07-23T11:28:15;9.73;;;4.40;;
14726;SDS011;7454;51.256;8.176;2022-07-23T11:30:46;18.08;;;5.10;;
14726;SDS011;7454;51.256;8.176;2022-07-23T11:35:39;11.30;;;5.40;;
14726;SDS011;7454;51.256;8.176;2022-07-23T11:38:21;14.60;;;6.18;;
14726;SDS011;7454;51.256;8.176;2022-07-23T11:40:49;10.57;;;6.25;;
14726;SDS011;7454;51.256;8.176;2022-07-23T11:43:19;13.73;;;6.40;;
14726;SDS011;7454;51.256;8.176;2022-07-23T11:45:48;15.98;;;6.20;;
14726;SDS011;7454;51.256;8.176;2022-07-23T11:48:19;12.95;;;6.72;;
14726;SDS011;7454;51.256;8.176;2022-07-23T11:50:51;15.73;;;6.95;;
14726;SDS011;7454;51.256;8.176;2022-07-23T11:53:25;17.02;;;7.60;;
14726;SDS011;7454;51.256;8.176;2022-07-23T11:55:54;12.38;;;6.68;;
14726;SDS011;7454;51.256;8.176;2022-07-23T11:58:32;14.38;;;7.65;;
14726;SDS011;7454;51.256;8.176;2022-07-23T12:00:58;13.18;;;6.35;;
14726;SDS011;7454;51.256;8.176;2022-07-23T12:03:24;17.38;;;8.98;;
14726;SDS011;7454;51.256;8.176;2022-07-23T12:05:50;17.55;;;8.15;;
14726;SDS011;7454;51.256;8.176;2022-07-23T12:08:22;11.18;;;7.53;;
14726;SDS011;7454;51.256;8.176;2022-07-23T12:10:49;13.23;;;7.57;;
14726;SDS011;7454;51.256;8.176;2022-07-23T12:13:16;14.43;;;7.88;;
14726;SDS011;7454;51.256;8.176;2022-07-23T12:15:53;14.43;;;8.23;;
14726;SDS011;7454;51.256;8.176;2022-07-23T12:18:24;12.48;;;7.03;;
14726;SDS011;7454;51.256;8.176;2022-07-23T12:20:53;12.23;;;8.10;;
14726;SDS011;7454;51.256;8.176;2022-07-23T12:23:22;13.50;;;6.90;;
14726;SDS011;7454;51.256;8.176;2022-07-23T12:25:51;11.75;;;6.68;;
14726;SDS011;7454;51.256;8.176;2022-07-23T12:30:56;13.85;;;5.47;;
14726;SDS011;7454;51.256;8.176;2022-07-23T12:33:24;11.40;;;6.10;;
14726;SDS011;7454;51.256;8.176;2022-07-23T12:35:59;11.10;;;6.13;;
14726;SDS011;7454;51.256;8.176;2022-07-23T12:38:36;13.63;;;6.40;;
14726;SDS011;7454;51.256;8.176;2022-07-23T12:41:14;13.20;;;6.07;;
14726;SDS011;7454;51.256;8.176;2022-07-23T12:43:40;11.85;;;6.35;;
14726;SDS011;7454;51.256;8.176;2022-07-23T12:46:09;13.05;;;6.35;;
14726;SDS011;7454;51.256;8.176;2022-07-23T12:51:15;11.73;;;7.03;;
14726;SDS011;7454;51.256;8.176;2022-07-23T12:53:47;15.35;;;7.13;;
14726;SDS011;7454;51.256;8.176;2022-07-23T12:56:19;14.18;;;7.90;;
14726;SDS011;7454;51.256;8.176;2022-07-23T12:59:01;16.05;;;7.68;;
14726;SDS011;7454;51.256;8.176;2022-07-23T13:01:41;13.05;;;7.90;;
14726;SDS011;7454;51.256;8.176;2022-07-23T13:04:26;15.00;;;8.00;;
14726;SDS011;7454;51.256;8.176;2022-07-23T13:06:52;16.85;;;7.40;;
14726;SDS011;7454;51.256;8.176;2022-07-23T13:09:24;13.07;;;7.10;;
14726;SDS011;7454;51.256;8.176;2022-07-23T13:11:53;13.07;;;7.78;;
14726;SDS011;7454;51.256;8.176;2022-07-23T13:14:21;20.20;;;8.98;;
14726;SDS011;7454;51.256;8.176;2022-07-23T13:16:50;14.25;;;8.95;;
14726;SDS011;7454;51.256;8.176;2022-07-23T13:19:18;16.20;;;7.72;;
14726;SDS011;7454;51.256;8.176;2022-07-23T13:21:45;11.18;;;6.40;;
14726;SDS011;7454;51.256;8.176;2022-07-23T13:24:11;14.13;;;6.93;;
14726;SDS011;7454;51.256;8.176;2022-07-23T13:26:38;16.88;;;7.57;;
14726;SDS011;7454;51.256;8.176;2022-07-23T13:29:05;12.77;;;7.97;;
14726;SDS011;7454;51.256;8.176;2022-07-23T13:31:31;12.93;;;7.78;;
14726;SDS011;7454;51.256;8.176;2022-07-23T13:33:58;14.57;;;7.88;;
14726;SDS011;7454;51.256;8.176;2022-07-23T13:36:24;15.13;;;8.35;;
14726;SDS011;7454;51.256;8.176;2022-07-23T13:38:49;16.08;;;9.07;;
14726;SDS011;7454;51.256;8.176;2022-07-23T13:41:16;14.15;;;7.93;;
14726;SDS011;7454;51.256;8.176;2022-07-23T13:43:43;13.25;;;8.32;;
14726;SDS011;7454;51.256;8.176;2022-07-23T13:46:09;13.35;;;8.20;;
14726;SDS011;7454;51.256;8.176;2022-07-23T13:48:35;12.18;;;7.57;;
14726;SDS011;7454;51.256;8.176;2022-07-23T13:51:00;15.32;;;7.90;;
14726;SDS011;7454;51.256;8.176;2022-07-23T13:53:26;12.77;;;7.25;;
14726;SDS011;7454;51.256;8.176;2022-07-23T13:55:52;16.50;;;7.30;;
14726;SDS011;7454;51.256;8.176;2022-07-23T13:58:19;10.43;;;6.40;;
14726;SDS011;7454;51.256;8.176;2022-07-23T14:00:47;13.38;;;8.23;;
14726;SDS011;7454;51.256;8.176;2022-07-23T14:03:16;13.85;;;7.47;;
14726;SDS011;7454;51.256;8.176;2022-07-23T14:05:43;12.73;;;7.45;;
14726;SDS011;7454;51.256;8.176;2022-07-23T14:08:09;13.07;;;7.50;;
14726;SDS011;7454;51.256;8.176;2022-07-23T14:10:36;13.70;;;7.78;;
14726;SDS011;7454;51.256;8.176;2022-07-23T14:13:02;10.07;;;7.20;;
14726;SDS011;7454;51.256;8.176;2022-07-23T14:15:29;12.63;;;6.50;;
14726;SDS011;7454;51.256;8.176;2022-07-23T14:17:56;13.02;;;5.95;;
14726;SDS011;7454;51.256;8.176;2022-07-23T14:20:22;12.77;;;5.80;;
14726;SDS011;7454;51.256;8.176;2022-07-23T14:22:48;11.48;;;5.07;;
14726;SDS011;7454;51.256;8.176;2022-07-23T14:25:15;8.82;;;4.63;;
14726;SDS011;7454;51.256;8.176;2022-07-23T14:27:41;8.60;;;5.07;;
14726;SDS011;7454;51.256;8.176;2022-07-23T14:30:08;12.20;;;5.15;;
14726;SDS011;7454;51.256;8.176;2022-07-23T14:32:35;9.68;;;5.07;;
14726;SDS011;7454;51.256;8.176;2022-07-23T14:35:02;11.27;;;4.40;;
14726;SDS011;7454;51.256;8.176;2022-07-23T14:37:29;10.13;;;4.32;;
14726;SDS011;7454;51.256;8.176;2022-07-23T14:39:55;8.30;;;4.45;;
14726;SDS011;7454;51.256;8.176;2022-07-23T14:42:21;10.07;;;3.90;;
14726;SDS011;7454;51.256;8.176;2022-07-23T14:44:47;7.28;;;3.78;;
14726;SDS011;7454;51.256;8.176;2022-07-23T14:47:13;8.88;;;3.75;;
14726;SDS011;7454;51.256;8.176;2022-07-23T14:49:39;9.65;;;3.90;;
14726;SDS011;7454;51.256;8.176;2022-07-23T14:52:05;8.23;;;3.65;;
14726;SDS011;7454;51.256;8.176;2022-07-23T14:54:31;9.20;;;3.65;;
14726;SDS011;7454;51.256;8.176;2022-07-23T14:56:58;12.45;;;3.75;;
14726;SDS011;7454;51.256;8.176;2022-07-23T14:59:24;15.20;;;3.38;;
14726;SDS011;7454;51.256;8.176;2022-07-23T15:01:50;9.68;;;4.20;;
14726;SDS011;7454;51.256;8.176;2022-07-23T15:04:17;7.35;;;3.20;;
14726;SDS011;7454;51.256;8.176;2022-07-23T15:06:42;9.23;;;3.38;;
14726;SDS011;7454;51.256;8.176;2022-07-23T15:09:09;7.53;;;3.17;;
14726;SDS011;7454;51.256;8.176;2022-07-23T15:11:35;7.18;;;2.85;;
14726;SDS011;7454;51.256;8.176;2022-07-23T15:14:03;9.73;;;3.60;;
14726;SDS011;7454;51.256;8.176;2022-07-23T15:16:29;7.68;;;3.42;;
14726;SDS011;7454;51.256;8.176;2022-07-23T15:18:56;7.80;;;3.28;;
14726;SDS011;7454;51.256;8.176;2022-07-23T15:21:21;8.88;;;2.72;;
14726;SDS011;7454;51.256;8.176;2022-07-23T15:23:47;7.68;;;3.17;;
14726;SDS011;7454;51.256;8.176;2022-07-23T15:26:13;7.75;;;3.20;;
14726;SDS011;7454;51.256;8.176;2022-07-23T15:28:40;10.77;;;3.42;;
14726;SDS011;7454;51.256;8.176;2022-07-23T15:31:06;6.78;;;2.90;;
14726;SDS011;7454;51.256;8.176;2022-07-23T15:33:33;9.57;;;3.17;;